sensor_id;sensor_type;location;lat;lon;timestamp;P1;durP1;ratioP1;P2;durP2;ratioP2
29030;SDS011;16122;50.236;11.734;2023-05-10T00:02:09;3.43;;;3.13;;
29030;SDS011;16122;50.236;11.734;2023-05-10T00:04:35;3.50;;;3.23;;
29030;SDS011;16122;50.236;11.734;2023-05-10T00:07:01;3.70;;;3.40;;
29030;SDS011;16122;50.236;11.734;2023-05-10T00:09:27;3.90;;;3.60;;
29030;SDS011;16122;50.236;11.734;2023-05-10T00:11:53;3.33;;;3.13;;
29030;SDS011;16122;50.236;11.734;2023-05-10T00:14:19;3.63;;;3.33;;
29030;SDS011;16122;50.236;11.734;2023-05-10T00:16:44;4.10;;;3.67;;
29030;SDS011;16122;50.236;11.734;2023-05-10T00:19:10;3.70;;;3.40;;
29030;SDS011;16122;50.236;11.734;2023-05-10T00:21:36;3.90;;;3.60;;
29030;SDS011;16122;50.236;11.734;2023-05-10T00:24:02;4.00;;;3.70;;
29030;SDS011;16122;50.236;11.734;2023-05-10T00:26:28;4.63;;;4.13;;
29030;SDS011;16122;50.236;11.734;2023-05-10T00:28:55;5.20;;;3.73;;
29030;SDS011;16122;50.236;11.734;2023-05-10T00:31:22;4.00;;;3.70;;
29030;SDS011;16122;50.236;11.734;2023-05-10T00:33:49;4.13;;;3.73;;
29030;SDS011;16122;50.236;11.734;2023-05-10T00:36:15;4.57;;;4.00;;
29030;SDS011;16122;50.236;11.734;2023-05-10T00:38:40;3.77;;;3.47;;
29030;SDS011;16122;50.236;11.734;2023-05-10T00:41:06;3.80;;;3.50;;
29030;SDS011;16122;50.236;11.734;2023-05-10T00:43:34;4.00;;;3.70;;
29030;SDS011;16122;50.236;11.734;2023-05-10T00:46:02;6.13;;;4.03;;
29030;SDS011;16122;50.236;11.734;2023-05-10T00:48:29;3.60;;;3.30;;
29030;SDS011;16122;50.236;11.734;2023-05-10T00:50:55;3.70;;;3.40;;
29030;SDS011;16122;50.236;11.734;2023-05-10T00:53:21;4.20;;;3.90;;
29030;SDS011;16122;50.236;11.734;2023-05-10T00:55:47;3.83;;;3.53;;
29030;SDS011;16122;50.236;11.734;2023-05-10T00:58:13;3.67;;;3.40;;
29030;SDS011;16122;50.236;11.734;2023-05-10T01:00:40;4.10;;;3.80;;
29030;SDS011;16122;50.236;11.734;2023-05-10T01:03:09;4.13;;;3.83;;
29030;SDS011;16122;50.236;11.734;2023-05-10T01:05:36;4.10;;;3.80;;
29030;SDS011;16122;50.236;11.734;2023-05-10T01:08:02;3.73;;;3.43;;
29030;SDS011;16122;50.236;11.734;2023-05-10T01:10:29;4.13;;;3.80;;
29030;SDS011;16122;50.236;11.734;2023-05-10T01:12:55;3.60;;;3.30;;
29030;SDS011;16122;50.236;11.734;2023-05-10T01:15:22;3.60;;;3.40;;
29030;SDS011;16122;50.236;11.734;2023-05-10T01:17:48;4.00;;;3.70;;
29030;SDS011;16122;50.236;11.734;2023-05-10T01:20:14;4.03;;;3.67;;
29030;SDS011;16122;50.236;11.734;2023-05-10T01:25:55;3.40;;;3.20;;
29030;SDS011;16122;50.236;11.734;2023-05-10T01:28:43;4.50;;;4.10;;
29030;SDS011;16122;50.236;11.734;2023-05-10T01:31:23;4.50;;;4.10;;
29030;SDS011;16122;50.236;11.734;2023-05-10T01:33:59;4.10;;;3.80;;
29030;SDS011;16122;50.236;11.734;2023-05-10T01:37:02;4.73;;;4.40;;
29030;SDS011;16122;50.236;11.734;2023-05-10T01:39:36;4.17;;;3.87;;
29030;SDS011;16122;50.236;11.734;2023-05-10T01:42:17;3.90;;;3.60;;
29030;SDS011;16122;50.236;11.734;2023-05-10T01:44:49;4.10;;;3.70;;
29030;SDS011;16122;50.236;11.734;2023-05-10T01:47:43;3.80;;;3.50;;
29030;SDS011;16122;50.236;11.734;2023-05-10T01:50:18;4.37;;;4.07;;
29030;SDS011;16122;50.236;11.734;2023-05-10T01:52:51;4.23;;;3.93;;
29030;SDS011;16122;50.236;11.734;2023-05-10T01:55:20;3.63;;;3.43;;
29030;SDS011;16122;50.236;11.734;2023-05-10T01:57:50;3.87;;;3.57;;
29030;SDS011;16122;50.236;11.734;2023-05-10T02:00:23;4.50;;;4.10;;
29030;SDS011;16122;50.236;11.734;2023-05-10T02:02:50;4.10;;;3.73;;
29030;SDS011;16122;50.236;11.734;2023-05-10T02:05:18;3.83;;;3.53;;
29030;SDS011;16122;50.236;11.734;2023-05-10T02:07:45;3.70;;;3.40;;
29030;SDS011;16122;50.236;11.734;2023-05-10T02:10:12;3.90;;;3.60;;
29030;SDS011;16122;50.236;11.734;2023-05-10T02:12:41;4.10;;;3.80;;
29030;SDS011;16122;50.236;11.734;2023-05-10T02:15:08;4.50;;;4.10;;
29030;SDS011;16122;50.236;11.734;2023-05-10T02:17:37;4.43;;;4.10;;
29030;SDS011;16122;50.236;11.734;2023-05-10T02:20:04;4.00;;;3.73;;
29030;SDS011;16122;50.236;11.734;2023-05-10T02:22:31;3.90;;;3.60;;
29030;SDS011;16122;50.236;11.734;2023-05-10T02:24:59;3.80;;;3.40;;
29030;SDS011;16122;50.236;11.734;2023-05-10T02:27:27;3.53;;;3.33;;
29030;SDS011;16122;50.236;11.734;2023-05-10T02:29:54;4.10;;;3.57;;
29030;SDS011;16122;50.236;11.734;2023-05-10T02:32:22;4.60;;;3.50;;
29030;SDS011;16122;50.236;11.734;2023-05-10T02:34:50;4.20;;;3.90;;
29030;SDS011;16122;50.236;11.734;2023-05-10T02:37:18;3.97;;;3.70;;
29030;SDS011;16122;50.236;11.734;2023-05-10T02:39:46;3.90;;;3.70;;
29030;SDS011;16122;50.236;11.734;2023-05-10T02:42:14;3.73;;;3.43;;
29030;SDS011;16122;50.236;11.734;2023-05-10T02:44:43;3.60;;;3.40;;
29030;SDS011;16122;50.236;11.734;2023-05-10T02:47:14;2.90;;;2.70;;
29030;SDS011;16122;50.236;11.734;2023-05-10T02:49:40;3.97;;;3.67;;
29030;SDS011;16122;50.236;11.734;2023-05-10T02:52:07;3.60;;;3.30;;
29030;SDS011;16122;50.236;11.734;2023-05-10T02:54:38;3.87;;;3.57;;
29030;SDS011;16122;50.236;11.734;2023-05-10T02:57:16;3.40;;;3.17;;
29030;SDS011;16122;50.236;11.734;2023-05-10T02:59:45;3.87;;;3.57;;
29030;SDS011;16122;50.236;11.734;2023-05-10T03:02:13;3.70;;;3.40;;
29030;SDS011;16122;50.236;11.734;2023-05-10T03:04:40;3.70;;;3.40;;
29030;SDS011;16122;50.236;11.734;2023-05-10T03:07:05;4.27;;;3.97;;
29030;SDS011;16122;50.236;11.734;2023-05-10T03:09:32;4.20;;;3.80;;
29030;SDS011;16122;50.236;11.734;2023-05-10T03:17:49;4.20;;;3.87;;
29030;SDS011;16122;50.236;11.734;2023-05-10T03:20:21;3.43;;;3.23;;
29030;SDS011;16122;50.236;11.734;2023-05-10T03:23:00;3.80;;;3.50;;
29030;SDS011;16122;50.236;11.734;2023-05-10T03:25:31;3.60;;;3.40;;
29030;SDS011;16122;50.236;11.734;2023-05-10T03:28:00;3.93;;;3.73;;
29030;SDS011;16122;50.236;11.734;2023-05-10T03:30:28;3.90;;;3.60;;
29030;SDS011;16122;50.236;11.734;2023-05-10T03:32:55;3.60;;;3.30;;
29030;SDS011;16122;50.236;11.734;2023-05-10T03:35:22;3.50;;;3.30;;
29030;SDS011;16122;50.236;11.734;2023-05-10T03:37:49;3.93;;;3.60;;
29030;SDS011;16122;50.236;11.734;2023-05-10T03:40:15;4.00;;;3.23;;
29030;SDS011;16122;50.236;11.734;2023-05-10T03:42:42;3.93;;;3.63;;
29030;SDS011;16122;50.236;11.734;2023-05-10T03:45:08;4.03;;;3.57;;
29030;SDS011;16122;50.236;11.734;2023-05-10T03:47:34;3.57;;;3.37;;
29030;SDS011;16122;50.236;11.734;2023-05-10T03:50:00;4.10;;;3.80;;
29030;SDS011;16122;50.236;11.734;2023-05-10T03:52:27;3.53;;;3.33;;
29030;SDS011;16122;50.236;11.734;2023-05-10T03:54:54;4.10;;;3.80;;
29030;SDS011;16122;50.236;11.734;2023-05-10T03:57:20;3.73;;;3.40;;
29030;SDS011;16122;50.236;11.734;2023-05-10T03:59:46;3.90;;;3.60;;
29030;SDS011;16122;50.236;11.734;2023-05-10T04:02:11;3.93;;;3.63;;
29030;SDS011;16122;50.236;11.734;2023-05-10T04:04:37;3.80;;;3.50;;
29030;SDS011;16122;50.236;11.734;2023-05-10T04:07:03;3.83;;;3.53;;
29030;SDS011;16122;50.236;11.734;2023-05-10T04:09:29;3.80;;;3.50;;
29030;SDS011;16122;50.236;11.734;2023-05-10T04:11:55;5.23;;;3.87;;
29030;SDS011;16122;50.236;11.734;2023-05-10T04:14:21;3.53;;;3.27;;
29030;SDS011;16122;50.236;11.734;2023-05-10T04:16:47;6.93;;;4.40;;
29030;SDS011;16122;50.236;11.734;2023-05-10T04:19:13;3.93;;;3.63;;
29030;SDS011;16122;50.236;11.734;2023-05-10T04:21:38;5.00;;;4.50;;
29030;SDS011;16122;50.236;11.734;2023-05-10T04:24:04;5.63;;;3.97;;
29030;SDS011;16122;50.236;11.734;2023-05-10T04:26:30;4.33;;;3.50;;
29030;SDS011;16122;50.236;11.734;2023-05-10T04:28:56;6.53;;;3.73;;
29030;SDS011;16122;50.236;11.734;2023-05-10T04:31:22;5.47;;;3.77;;
29030;SDS011;16122;50.236;11.734;2023-05-10T04:33:47;4.70;;;3.97;;
29030;SDS011;16122;50.236;11.734;2023-05-10T04:36:14;3.80;;;3.50;;
29030;SDS011;16122;50.236;11.734;2023-05-10T04:38:40;5.37;;;4.20;;
29030;SDS011;16122;50.236;11.734;2023-05-10T04:41:08;4.23;;;3.70;;
29030;SDS011;16122;50.236;11.734;2023-05-10T04:43:35;7.63;;;3.97;;
29030;SDS011;16122;50.236;11.734;2023-05-10T04:46:01;8.97;;;3.67;;
29030;SDS011;16122;50.236;11.734;2023-05-10T04:48:27;6.73;;;4.17;;
29030;SDS011;16122;50.236;11.734;2023-05-10T04:50:53;7.83;;;3.60;;
29030;SDS011;16122;50.236;11.734;2023-05-10T04:53:19;9.93;;;4.40;;
29030;SDS011;16122;50.236;11.734;2023-05-10T04:55:45;5.10;;;4.30;;
29030;SDS011;16122;50.236;11.734;2023-05-10T04:58:12;5.50;;;4.90;;
29030;SDS011;16122;50.236;11.734;2023-05-10T05:00:37;4.73;;;4.20;;
29030;SDS011;16122;50.236;11.734;2023-05-10T05:03:03;6.47;;;4.10;;
29030;SDS011;16122;50.236;11.734;2023-05-10T05:05:30;5.07;;;4.10;;
29030;SDS011;16122;50.236;11.734;2023-05-10T05:07:56;4.00;;;3.50;;
29030;SDS011;16122;50.236;11.734;2023-05-10T05:10:22;4.00;;;3.60;;
29030;SDS011;16122;50.236;11.734;2023-05-10T05:12:47;4.07;;;3.50;;
29030;SDS011;16122;50.236;11.734;2023-05-10T05:15:13;5.30;;;4.17;;
29030;SDS011;16122;50.236;11.734;2023-05-10T05:17:40;9.20;;;4.17;;
29030;SDS011;16122;50.236;11.734;2023-05-10T05:20:06;7.80;;;4.10;;
29030;SDS011;16122;50.236;11.734;2023-05-10T05:22:33;5.37;;;3.60;;
29030;SDS011;16122;50.236;11.734;2023-05-10T05:24:59;4.10;;;3.73;;
29030;SDS011;16122;50.236;11.734;2023-05-10T05:27:25;6.87;;;4.20;;
29030;SDS011;16122;50.236;11.734;2023-05-10T05:29:53;4.20;;;3.80;;
29030;SDS011;16122;50.236;11.734;2023-05-10T05:32:19;4.23;;;3.83;;
29030;SDS011;16122;50.236;11.734;2023-05-10T05:34:45;6.90;;;3.97;;
29030;SDS011;16122;50.236;11.734;2023-05-10T05:37:15;4.40;;;4.00;;
29030;SDS011;16122;50.236;11.734;2023-05-10T05:39:42;4.33;;;3.93;;
29030;SDS011;16122;50.236;11.734;2023-05-10T05:42:11;4.10;;;3.70;;
29030;SDS011;16122;50.236;11.734;2023-05-10T05:44:38;4.87;;;4.40;;
29030;SDS011;16122;50.236;11.734;2023-05-10T05:47:04;4.70;;;4.30;;
29030;SDS011;16122;50.236;11.734;2023-05-10T05:49:31;4.40;;;4.00;;
29030;SDS011;16122;50.236;11.734;2023-05-10T05:52:01;5.67;;;4.00;;
29030;SDS011;16122;50.236;11.734;2023-05-10T05:54:28;5.67;;;5.07;;
29030;SDS011;16122;50.236;11.734;2023-05-10T05:56:55;3.70;;;3.50;;
29030;SDS011;16122;50.236;11.734;2023-05-10T05:59:22;5.07;;;4.30;;
29030;SDS011;16122;50.236;11.734;2023-05-10T06:01:48;3.80;;;3.53;;
29030;SDS011;16122;50.236;11.734;2023-05-10T06:04:14;4.47;;;3.70;;
29030;SDS011;16122;50.236;11.734;2023-05-10T06:06:41;4.03;;;3.63;;
29030;SDS011;16122;50.236;11.734;2023-05-10T06:09:07;4.20;;;3.80;;
29030;SDS011;16122;50.236;11.734;2023-05-10T06:11:33;4.70;;;3.93;;
29030;SDS011;16122;50.236;11.734;2023-05-10T06:14:00;3.50;;;3.20;;
29030;SDS011;16122;50.236;11.734;2023-05-10T06:16:26;4.10;;;3.60;;
29030;SDS011;16122;50.236;11.734;2023-05-10T06:18:53;4.80;;;3.97;;
29030;SDS011;16122;50.236;11.734;2023-05-10T06:21:19;4.00;;;3.70;;
29030;SDS011;16122;50.236;11.734;2023-05-10T06:23:44;4.17;;;3.83;;
29030;SDS011;16122;50.236;11.734;2023-05-10T06:26:10;3.53;;;3.23;;
29030;SDS011;16122;50.236;11.734;2023-05-10T06:28:36;3.70;;;3.40;;
29030;SDS011;16122;50.236;11.734;2023-05-10T06:31:05;4.40;;;4.00;;
29030;SDS011;16122;50.236;11.734;2023-05-10T06:33:32;4.40;;;3.97;;
29030;SDS011;16122;50.236;11.734;2023-05-10T06:35:58;3.97;;;3.67;;
29030;SDS011;16122;50.236;11.734;2023-05-10T06:38:24;4.13;;;3.83;;
29030;SDS011;16122;50.236;11.734;2023-05-10T06:40:51;4.37;;;4.07;;
29030;SDS011;16122;50.236;11.734;2023-05-10T06:43:16;5.27;;;3.90;;
29030;SDS011;16122;50.236;11.734;2023-05-10T06:45:42;4.10;;;3.80;;
29030;SDS011;16122;50.236;11.734;2023-05-10T06:48:08;4.30;;;3.63;;
29030;SDS011;16122;50.236;11.734;2023-05-10T06:50:34;5.60;;;4.07;;
29030;SDS011;16122;50.236;11.734;2023-05-10T06:53:00;4.30;;;3.90;;
29030;SDS011;16122;50.236;11.734;2023-05-10T06:55:29;4.27;;;3.87;;
29030;SDS011;16122;50.236;11.734;2023-05-10T06:57:55;4.00;;;3.60;;
29030;SDS011;16122;50.236;11.734;2023-05-10T07:00:21;3.80;;;3.50;;
29030;SDS011;16122;50.236;11.734;2023-05-10T07:02:46;4.40;;;4.00;;
29030;SDS011;16122;50.236;11.734;2023-05-10T07:05:12;3.97;;;3.60;;
29030;SDS011;16122;50.236;11.734;2023-05-10T07:07:39;4.17;;;3.60;;
29030;SDS011;16122;50.236;11.734;2023-05-10T07:10:05;4.50;;;3.63;;
29030;SDS011;16122;50.236;11.734;2023-05-10T07:12:32;3.73;;;3.43;;
29030;SDS011;16122;50.236;11.734;2023-05-10T07:14:58;7.13;;;3.70;;
29030;SDS011;16122;50.236;11.734;2023-05-10T07:17:24;6.33;;;3.80;;
29030;SDS011;16122;50.236;11.734;2023-05-10T07:19:50;3.60;;;3.30;;
29030;SDS011;16122;50.236;11.734;2023-05-10T07:22:15;4.40;;;3.80;;
29030;SDS011;16122;50.236;11.734;2023-05-10T07:24:44;4.00;;;3.70;;
29030;SDS011;16122;50.236;11.734;2023-05-10T07:27:10;4.67;;;3.80;;
29030;SDS011;16122;50.236;11.734;2023-05-10T07:29:36;3.50;;;3.30;;
29030;SDS011;16122;50.236;11.734;2023-05-10T07:32:02;3.83;;;3.53;;
29030;SDS011;16122;50.236;11.734;2023-05-10T07:34:28;4.37;;;3.97;;
29030;SDS011;16122;50.236;11.734;2023-05-10T07:36:56;4.90;;;3.63;;
29030;SDS011;16122;50.236;11.734;2023-05-10T07:39:25;3.70;;;3.50;;
29030;SDS011;16122;50.236;11.734;2023-05-10T07:41:54;4.10;;;3.80;;
29030;SDS011;16122;50.236;11.734;2023-05-10T07:44:20;5.47;;;3.90;;
29030;SDS011;16122;50.236;11.734;2023-05-10T07:46:46;3.90;;;3.47;;
29030;SDS011;16122;50.236;11.734;2023-05-10T07:49:13;3.67;;;3.37;;
29030;SDS011;16122;50.236;11.734;2023-05-10T07:51:39;4.10;;;3.80;;
29030;SDS011;16122;50.236;11.734;2023-05-10T07:54:05;3.90;;;3.60;;
29030;SDS011;16122;50.236;11.734;2023-05-10T07:56:31;3.77;;;3.47;;
29030;SDS011;16122;50.236;11.734;2023-05-10T07:59:02;3.60;;;3.30;;
29030;SDS011;16122;50.236;11.734;2023-05-10T08:01:31;3.83;;;3.53;;
29030;SDS011;16122;50.236;11.734;2023-05-10T08:03:59;4.30;;;3.17;;
29030;SDS011;16122;50.236;11.734;2023-05-10T08:06:25;3.37;;;3.07;;
29030;SDS011;16122;50.236;11.734;2023-05-10T08:08:53;3.90;;;3.60;;
29030;SDS011;16122;50.236;11.734;2023-05-10T08:11:19;4.00;;;3.63;;
29030;SDS011;16122;50.236;11.734;2023-05-10T08:13:46;3.70;;;3.40;;
29030;SDS011;16122;50.236;11.734;2023-05-10T08:16:13;4.20;;;3.80;;
29030;SDS011;16122;50.236;11.734;2023-05-10T08:18:39;3.40;;;3.20;;
29030;SDS011;16122;50.236;11.734;2023-05-10T08:21:05;4.47;;;2.97;;
29030;SDS011;16122;50.236;11.734;2023-05-10T08:23:32;3.67;;;3.47;;
29030;SDS011;16122;50.236;11.734;2023-05-10T08:25:58;2.90;;;2.70;;
29030;SDS011;16122;50.236;11.734;2023-05-10T08:28:24;3.17;;;2.93;;
29030;SDS011;16122;50.236;11.734;2023-05-10T08:30:50;3.83;;;3.43;;
29030;SDS011;16122;50.236;11.734;2023-05-10T08:33:17;3.87;;;3.57;;
29030;SDS011;16122;50.236;11.734;2023-05-10T08:35:43;3.20;;;2.90;;
29030;SDS011;16122;50.236;11.734;2023-05-10T08:38:09;2.80;;;2.60;;
29030;SDS011;16122;50.236;11.734;2023-05-10T08:40:42;3.47;;;3.17;;
29030;SDS011;16122;50.236;11.734;2023-05-10T08:43:09;3.23;;;2.93;;
29030;SDS011;16122;50.236;11.734;2023-05-10T08:45:37;3.23;;;2.97;;
29030;SDS011;16122;50.236;11.734;2023-05-10T08:48:07;3.33;;;2.97;;
29030;SDS011;16122;50.236;11.734;2023-05-10T08:50:38;3.13;;;2.93;;
29030;SDS011;16122;50.236;11.734;2023-05-10T08:53:12;4.17;;;3.00;;
29030;SDS011;16122;50.236;11.734;2023-05-10T08:55:39;3.70;;;2.87;;
29030;SDS011;16122;50.236;11.734;2023-05-10T08:58:07;3.43;;;3.13;;
29030;SDS011;16122;50.236;11.734;2023-05-10T09:00:34;2.67;;;2.50;;
29030;SDS011;16122;50.236;11.734;2023-05-10T09:03:01;4.07;;;2.73;;
29030;SDS011;16122;50.236;11.734;2023-05-10T09:05:28;2.90;;;2.70;;
29030;SDS011;16122;50.236;11.734;2023-05-10T09:07:54;3.67;;;3.37;;
29030;SDS011;16122;50.236;11.734;2023-05-10T09:10:20;3.00;;;2.80;;
29030;SDS011;16122;50.236;11.734;2023-05-10T09:12:46;3.20;;;2.90;;
29030;SDS011;16122;50.236;11.734;2023-05-10T09:15:15;3.10;;;2.90;;
29030;SDS011;16122;50.236;11.734;2023-05-10T09:17:44;3.10;;;2.90;;
29030;SDS011;16122;50.236;11.734;2023-05-10T09:20:10;3.50;;;3.20;;
29030;SDS011;16122;50.236;11.734;2023-05-10T09:22:36;2.73;;;2.60;;
29030;SDS011;16122;50.236;11.734;2023-05-10T09:25:13;3.17;;;2.97;;
29030;SDS011;16122;50.236;11.734;2023-05-10T09:27:40;2.80;;;2.60;;
29030;SDS011;16122;50.236;11.734;2023-05-10T09:30:10;2.77;;;2.57;;
29030;SDS011;16122;50.236;11.734;2023-05-10T09:32:42;2.63;;;2.53;;
29030;SDS011;16122;50.236;11.734;2023-05-10T09:35:10;3.87;;;3.30;;
29030;SDS011;16122;50.236;11.734;2023-05-10T09:37:38;3.00;;;2.77;;
29030;SDS011;16122;50.236;11.734;2023-05-10T09:40:11;3.40;;;3.13;;
29030;SDS011;16122;50.236;11.734;2023-05-10T09:42:38;3.37;;;3.10;;
29030;SDS011;16122;50.236;11.734;2023-05-10T09:45:05;3.00;;;2.80;;
29030;SDS011;16122;50.236;11.734;2023-05-10T09:47:32;2.87;;;2.67;;
29030;SDS011;16122;50.236;11.734;2023-05-10T09:50:02;3.00;;;2.70;;
29030;SDS011;16122;50.236;11.734;2023-05-10T09:52:29;2.90;;;2.70;;
29030;SDS011;16122;50.236;11.734;2023-05-10T09:54:56;3.00;;;2.80;;
29030;SDS011;16122;50.236;11.734;2023-05-10T09:57:22;3.10;;;2.90;;
29030;SDS011;16122;50.236;11.734;2023-05-10T09:59:50;2.70;;;2.50;;
29030;SDS011;16122;50.236;11.734;2023-05-10T10:02:16;3.53;;;3.33;;
29030;SDS011;16122;50.236;11.734;2023-05-10T10:04:42;2.67;;;2.47;;
29030;SDS011;16122;50.236;11.734;2023-05-10T10:07:08;2.43;;;2.23;;
29030;SDS011;16122;50.236;11.734;2023-05-10T10:09:34;2.80;;;2.60;;
29030;SDS011;16122;50.236;11.734;2023-05-10T10:12:03;3.13;;;2.90;;
29030;SDS011;16122;50.236;11.734;2023-05-10T10:14:29;2.73;;;2.60;;
29030;SDS011;16122;50.236;11.734;2023-05-10T10:16:56;2.80;;;2.60;;
29030;SDS011;16122;50.236;11.734;2023-05-10T10:19:21;2.83;;;2.67;;
29030;SDS011;16122;50.236;11.734;2023-05-10T10:21:48;2.23;;;2.13;;
29030;SDS011;16122;50.236;11.734;2023-05-10T10:24:15;2.50;;;2.30;;
29030;SDS011;16122;50.236;11.734;2023-05-10T10:26:41;2.87;;;2.67;;
29030;SDS011;16122;50.236;11.734;2023-05-10T10:36:53;2.37;;;2.27;;
29030;SDS011;16122;50.236;11.734;2023-05-10T10:39:21;7.07;;;2.63;;
29030;SDS011;16122;50.236;11.734;2023-05-10T10:41:54;2.60;;;2.40;;
29030;SDS011;16122;50.236;11.734;2023-05-10T10:47:07;3.30;;;2.40;;
29030;SDS011;16122;50.236;11.734;2023-05-10T10:52:31;2.70;;;2.50;;
29030;SDS011;16122;50.236;11.734;2023-05-10T11:00:28;2.57;;;2.43;;
29030;SDS011;16122;50.236;11.734;2023-05-10T11:03:14;3.20;;;2.37;;
29030;SDS011;16122;50.236;11.734;2023-05-10T11:08:14;2.70;;;2.50;;
29030;SDS011;16122;50.236;11.734;2023-05-10T11:13:37;2.43;;;2.23;;
29030;SDS011;16122;50.236;11.734;2023-05-10T11:18:59;2.57;;;2.20;;
29030;SDS011;16122;50.236;11.734;2023-05-10T11:21:30;2.93;;;2.70;;
29030;SDS011;16122;50.236;11.734;2023-05-10T11:23:58;3.03;;;2.73;;
29030;SDS011;16122;50.236;11.734;2023-05-10T11:26:25;2.63;;;2.43;;
29030;SDS011;16122;50.236;11.734;2023-05-10T11:28:56;2.60;;;2.40;;
29030;SDS011;16122;50.236;11.734;2023-05-10T11:31:23;3.30;;;2.77;;
29030;SDS011;16122;50.236;11.734;2023-05-10T11:33:55;2.60;;;2.20;;
29030;SDS011;16122;50.236;11.734;2023-05-10T11:38:52;2.33;;;2.17;;
29030;SDS011;16122;50.236;11.734;2023-05-10T11:41:18;2.33;;;2.23;;
29030;SDS011;16122;50.236;11.734;2023-05-10T11:43:51;2.27;;;2.17;;
29030;SDS011;16122;50.236;11.734;2023-05-10T11:46:18;2.03;;;1.90;;
29030;SDS011;16122;50.236;11.734;2023-05-10T11:48:46;13.53;;;2.47;;
29030;SDS011;16122;50.236;11.734;2023-05-10T11:51:19;2.03;;;1.93;;
29030;SDS011;16122;50.236;11.734;2023-05-10T11:53:46;2.40;;;2.20;;
29030;SDS011;16122;50.236;11.734;2023-05-10T11:56:12;2.23;;;2.03;;
29030;SDS011;16122;50.236;11.734;2023-05-10T11:58:38;2.00;;;1.90;;
29030;SDS011;16122;50.236;11.734;2023-05-10T12:01:05;2.53;;;2.33;;
29030;SDS011;16122;50.236;11.734;2023-05-10T12:03:35;2.50;;;2.10;;
29030;SDS011;16122;50.236;11.734;2023-05-10T12:06:02;2.33;;;1.97;;
29030;SDS011;16122;50.236;11.734;2023-05-10T12:08:29;2.00;;;1.80;;
29030;SDS011;16122;50.236;11.734;2023-05-10T12:11:16;2.00;;;1.90;;
29030;SDS011;16122;50.236;11.734;2023-05-10T12:13:42;2.00;;;1.90;;
29030;SDS011;16122;50.236;11.734;2023-05-10T12:18:50;2.53;;;2.03;;
29030;SDS011;16122;50.236;11.734;2023-05-10T12:21:17;2.20;;;2.00;;
29030;SDS011;16122;50.236;11.734;2023-05-10T12:23:45;2.40;;;2.27;;
29030;SDS011;16122;50.236;11.734;2023-05-10T12:26:12;2.60;;;1.80;;
29030;SDS011;16122;50.236;11.734;2023-05-10T12:28:38;2.90;;;2.40;;
29030;SDS011;16122;50.236;11.734;2023-05-10T12:31:05;2.57;;;2.37;;
29030;SDS011;16122;50.236;11.734;2023-05-10T12:33:35;3.90;;;2.23;;
29030;SDS011;16122;50.236;11.734;2023-05-10T12:36:11;2.67;;;2.30;;
29030;SDS011;16122;50.236;11.734;2023-05-10T12:38:39;2.23;;;2.10;;
29030;SDS011;16122;50.236;11.734;2023-05-10T12:41:10;1.80;;;1.70;;
29030;SDS011;16122;50.236;11.734;2023-05-10T12:43:38;1.77;;;1.67;;
29030;SDS011;16122;50.236;11.734;2023-05-10T12:46:08;1.93;;;1.83;;
29030;SDS011;16122;50.236;11.734;2023-05-10T12:48:36;2.67;;;2.20;;
29030;SDS011;16122;50.236;11.734;2023-05-10T12:51:02;2.13;;;2.00;;
29030;SDS011;16122;50.236;11.734;2023-05-10T12:53:29;2.30;;;2.20;;
29030;SDS011;16122;50.236;11.734;2023-05-10T12:55:55;2.33;;;2.17;;
29030;SDS011;16122;50.236;11.734;2023-05-10T12:58:21;2.03;;;1.93;;
29030;SDS011;16122;50.236;11.734;2023-05-10T13:00:47;2.63;;;2.13;;
29030;SDS011;16122;50.236;11.734;2023-05-10T13:03:13;2.03;;;1.93;;
29030;SDS011;16122;50.236;11.734;2023-05-10T13:05:39;2.33;;;2.13;;
29030;SDS011;16122;50.236;11.734;2023-05-10T13:08:05;2.30;;;2.10;;
29030;SDS011;16122;50.236;11.734;2023-05-10T13:10:31;3.63;;;2.10;;
29030;SDS011;16122;50.236;11.734;2023-05-10T13:12:57;2.40;;;2.20;;
29030;SDS011;16122;50.236;11.734;2023-05-10T13:15:24;2.10;;;1.97;;
29030;SDS011;16122;50.236;11.734;2023-05-10T13:17:50;2.53;;;2.33;;
29030;SDS011;16122;50.236;11.734;2023-05-10T13:20:16;3.73;;;2.17;;
29030;SDS011;16122;50.236;11.734;2023-05-10T13:22:43;3.60;;;2.20;;
29030;SDS011;16122;50.236;11.734;2023-05-10T13:25:09;2.33;;;2.20;;
29030;SDS011;16122;50.236;11.734;2023-05-10T13:27:36;2.20;;;2.10;;
29030;SDS011;16122;50.236;11.734;2023-05-10T13:30:02;2.23;;;2.03;;
29030;SDS011;16122;50.236;11.734;2023-05-10T13:32:29;2.80;;;2.00;;
29030;SDS011;16122;50.236;11.734;2023-05-10T13:34:55;2.27;;;2.17;;
29030;SDS011;16122;50.236;11.734;2023-05-10T13:37:21;3.40;;;2.23;;
29030;SDS011;16122;50.236;11.734;2023-05-10T13:39:47;2.67;;;2.47;;
29030;SDS011;16122;50.236;11.734;2023-05-10T13:42:13;3.33;;;2.13;;
29030;SDS011;16122;50.236;11.734;2023-05-10T13:44:39;2.47;;;2.27;;
29030;SDS011;16122;50.236;11.734;2023-05-10T13:47:05;1.97;;;1.87;;
29030;SDS011;16122;50.236;11.734;2023-05-10T13:49:32;3.07;;;2.87;;
29030;SDS011;16122;50.236;11.734;2023-05-10T13:51:59;2.10;;;2.00;;
29030;SDS011;16122;50.236;11.734;2023-05-10T13:54:31;2.87;;;2.00;;
29030;SDS011;16122;50.236;11.734;2023-05-10T13:56:56;2.90;;;1.90;;
29030;SDS011;16122;50.236;11.734;2023-05-10T13:59:22;2.93;;;1.80;;
29030;SDS011;16122;50.236;11.734;2023-05-10T14:01:48;2.50;;;2.27;;
29030;SDS011;16122;50.236;11.734;2023-05-10T14:04:14;2.40;;;1.90;;
29030;SDS011;16122;50.236;11.734;2023-05-10T14:06:40;2.23;;;1.83;;
29030;SDS011;16122;50.236;11.734;2023-05-10T14:09:06;1.90;;;1.80;;
29030;SDS011;16122;50.236;11.734;2023-05-10T14:11:32;1.93;;;1.80;;
29030;SDS011;16122;50.236;11.734;2023-05-10T14:13:57;1.83;;;1.73;;
29030;SDS011;16122;50.236;11.734;2023-05-10T14:16:23;2.37;;;1.73;;
29030;SDS011;16122;50.236;11.734;2023-05-10T14:18:49;2.33;;;2.17;;
29030;SDS011;16122;50.236;11.734;2023-05-10T14:21:15;2.70;;;2.07;;
29030;SDS011;16122;50.236;11.734;2023-05-10T14:23:41;2.67;;;2.00;;
29030;SDS011;16122;50.236;11.734;2023-05-10T14:26:06;3.07;;;2.10;;
29030;SDS011;16122;50.236;11.734;2023-05-10T14:28:32;2.03;;;1.93;;
29030;SDS011;16122;50.236;11.734;2023-05-10T14:30:58;2.00;;;1.90;;
29030;SDS011;16122;50.236;11.734;2023-05-10T14:33:24;2.37;;;2.17;;
29030;SDS011;16122;50.236;11.734;2023-05-10T14:35:50;1.90;;;1.80;;
29030;SDS011;16122;50.236;11.734;2023-05-10T14:38:16;1.83;;;1.50;;
29030;SDS011;16122;50.236;11.734;2023-05-10T14:40:42;3.40;;;1.63;;
29030;SDS011;16122;50.236;11.734;2023-05-10T14:43:08;1.90;;;1.80;;
29030;SDS011;16122;50.236;11.734;2023-05-10T14:45:34;2.03;;;1.60;;
29030;SDS011;16122;50.236;11.734;2023-05-10T14:48:00;2.03;;;1.93;;
29030;SDS011;16122;50.236;11.734;2023-05-10T14:50:29;1.80;;;1.70;;
29030;SDS011;16122;50.236;11.734;2023-05-10T14:52:56;1.87;;;1.77;;
29030;SDS011;16122;50.236;11.734;2023-05-10T14:55:23;1.97;;;1.87;;
29030;SDS011;16122;50.236;11.734;2023-05-10T14:57:48;2.33;;;1.97;;
29030;SDS011;16122;50.236;11.734;2023-05-10T15:00:15;2.57;;;1.80;;
29030;SDS011;16122;50.236;11.734;2023-05-10T15:02:43;2.43;;;2.23;;
29030;SDS011;16122;50.236;11.734;2023-05-10T15:05:09;2.73;;;1.77;;
29030;SDS011;16122;50.236;11.734;2023-05-10T15:07:35;1.90;;;1.80;;
29030;SDS011;16122;50.236;11.734;2023-05-10T15:10:01;5.53;;;1.83;;
29030;SDS011;16122;50.236;11.734;2023-05-10T15:12:27;2.80;;;1.70;;
29030;SDS011;16122;50.236;11.734;2023-05-10T15:14:53;3.03;;;2.10;;
29030;SDS011;16122;50.236;11.734;2023-05-10T15:17:18;2.80;;;1.70;;